Time,TemperatureF,DewpointF,PressureIn,WindDirection,WindDirectionDegrees,WindSpeedMPH,WindSpeedGustMPH,Humidity,HourlyPrecipIn,Conditions,Clouds,dailyrainin,SoftwareType,DateUTC
2013-01-05 00:00:00,65.3,63.2,30.24,NNW,348,1.0,1.0,93,0.00,,,0.00,Wunderground v.1.15,2013-01-05 05:00:00,
2013-01-05 00:05:00,65.3,63.2,30.24,North,349,0.0,4.0,93,0.00,,,0.00,Wunderground v.1.15,2013-01-05 05:05:00,
2013-01-05 00:15:00,65.2,63.4,30.24,NNW,348,0.0,4.0,94,0.00,,,0.00,Wunderground v.1.15,2013-01-05 05:15:00,
2013-01-05 00:20:00,65.3,63.5,30.24,NNW,348,0.0,4.0,94,0.00,,,0.00,Wunderground v.1.15,2013-01-05 05:20:00,
2013-01-05 00:25:00,65.3,63.5,30.24,North,350,0.0,4.0,94,0.00,,,0.00,Wunderground v.1.15,2013-01-05 05:25:00,
2013-01-05 00:35:00,64.9,63.4,30.23,North,349,0.0,4.0,95,0.00,,,0.00,Wunderground v.1.15,2013-01-05 05:35:00,
2013-01-05 00:40:00,64.7,63.2,30.24,North,351,0.0,4.0,95,0.00,,,0.00,Wunderground v.1.15,2013-01-05 05:40:00,
2013-01-05 00:50:00,64.6,63.1,30.23,NNW,341,1.0,1.0,95,0.00,,,0.00,Wunderground v.1.15,2013-01-05 05:50:00,
2013-01-05 00:55:00,64.6,63.4,30.23,NNW,341,1.0,4.0,96,0.00,,,0.00,Wunderground v.1.15,2013-01-05 05:55:00,
2013-01-05 01:00:00,64.6,63.1,30.23,NNW,340,0.0,0.0,95,0.00,,,0.00,Wunderground v.1.15,2013-01-05 06:00:00,
2013-01-05 01:10:00,64.9,63.4,30.23,NNW,340,0.0,0.0,95,0.00,,,0.00,Wunderground v.1.15,2013-01-05 06:10:00,
2013-01-05 01:15:00,65.0,63.8,30.22,NNW,340,0.0,0.0,96,0.00,,,0.00,Wunderground v.1.15,2013-01-05 06:15:00,
2013-01-05 01:25:00,65.1,63.6,30.22,NNW,340,0.0,0.0,95,0.00,,,0.00,Wunderground v.1.15,2013-01-05 06:25:00,
2013-01-05 01:30:00,65.2,63.7,30.22,NNW,340,0.0,0.0,95,0.00,,,0.00,Wunderground v.1.15,2013-01-05 06:30:00,
2013-01-05 01:40:00,65.2,63.7,30.22,NNW,340,0.0,0.0,95,0.00,,,0.00,Wunderground v.1.15,2013-01-05 06:40:00,
2013-01-05 01:45:00,65.3,63.8,30.22,NNW,340,0.0,0.0,95,0.00,,,0.00,Wunderground v.1.15,2013-01-05 06:45:00,
2013-01-05 01:50:00,65.4,63.9,30.22,NNW,340,0.0,0.0,95,0.00,,,0.00,Wunderground v.1.15,2013-01-05 06:50:00,
2013-01-05 02:01:00,65.4,63.9,30.22,NNW,348,1.0,1.0,95,0.00,,,0.00,Wunderground v.1.15,2013-01-05 07:01:00,
2013-01-05 02:10:00,65.3,63.8,30.22,NNW,340,1.0,6.0,95,0.00,,,0.00,Wunderground v.1.15,2013-01-05 07:10:00,
2013-01-05 02:15:00,65.2,63.7,30.22,NNW,340,1.0,1.0,95,0.00,,,0.00,Wunderground v.1.15,2013-01-05 07:15:00,
2013-01-05 02:20:00,65.0,63.5,30.22,NNW,346,1.0,2.0,95,0.00,,,0.00,Wunderground v.1.15,2013-01-05 07:20:00,
2013-01-05 02:30:00,64.8,63.6,30.22,North,350,2.0,5.0,96,0.00,,,0.00,Wunderground v.1.15,2013-01-05 07:30:00,
2013-01-05 02:40:00,64.7,63.5,30.22,NNE,32,3.0,4.0,96,0.00,,,0.00,Wunderground v.1.15,2013-01-05 07:40:00,
2013-01-05 02:45:00,64.4,63.2,30.22,North,355,3.0,3.0,96,0.00,,,0.00,Wunderground v.1.15,2013-01-05 07:45:00,
2013-01-05 02:55:00,64.4,63.5,30.22,NW,325,1.0,5.0,97,0.00,,,0.00,Wunderground v.1.15,2013-01-05 07:55:00,
2013-01-05 03:00:00,64.4,63.2,30.22,NNW,328,0.0,4.0,96,0.00,,,0.00,Wunderground v.1.15,2013-01-05 08:00:00,
2013-01-05 03:10:00,64.4,63.5,30.22,NW,306,1.0,4.0,97,0.00,,,0.00,Wunderground v.1.15,2013-01-05 08:10:00,
2013-01-05 03:15:00,64.3,63.1,30.22,NW,305,1.0,4.0,96,0.00,,,0.00,Wunderground v.1.15,2013-01-05 08:15:00,
2013-01-05 03:20:00,64.2,63.3,30.22,NW,314,0.0,4.0,97,0.00,,,0.00,Wunderground v.1.15,2013-01-05 08:20:00,
2013-01-05 03:25:00,64.1,62.9,30.22,NW,313,1.0,4.0,96,0.00,,,0.00,Wunderground v.1.15,2013-01-05 08:25:00,
2013-01-05 03:35:00,64.0,63.1,30.22,NW,321,1.0,4.0,97,0.00,,,0.00,Wunderground v.1.15,2013-01-05 08:35:00,
2013-01-05 03:40:00,64.0,63.1,30.22,NW,321,1.0,1.0,97,0.00,,,0.00,Wunderground v.1.15,2013-01-05 08:40:00,
2013-01-05 03:45:00,64.0,63.1,30.22,NW,323,0.0,4.0,97,0.00,,,0.00,Wunderground v.1.15,2013-01-05 08:45:00,
2013-01-05 03:50:00,64.0,63.1,30.22,NW,323,0.0,4.0,97,0.00,,,0.00,Wunderground v.1.15,2013-01-05 08:50:00,
2013-01-05 03:55:00,64.0,63.1,30.22,NW,323,0.0,4.0,97,0.00,,,0.00,Wunderground v.1.15,2013-01-05 08:55:00,
2013-01-05 04:00:00,63.9,63.0,30.22,NW,321,1.0,4.0,97,0.00,,,0.00,Wunderground v.1.15,2013-01-05 09:00:00,
2013-01-05 04:10:00,63.9,63.0,30.22,NW,319,0.0,4.0,97,0.00,,,0.00,Wunderground v.1.15,2013-01-05 09:10:00,
2013-01-05 04:15:00,63.9,63.0,30.22,North,350,1.0,4.0,97,0.00,,,0.00,Wunderground v.1.15,2013-01-05 09:15:00,
2013-01-05 04:20:00,63.9,63.0,30.22,NW,317,1.0,1.0,97,0.00,,,0.00,Wunderground v.1.15,2013-01-05 09:20:00,
2013-01-05 04:25:00,63.7,62.8,30.22,NW,306,2.0,3.0,97,0.00,,,0.00,Wunderground v.1.15,2013-01-05 09:25:00,
2013-01-05 04:30:00,63.6,62.7,30.22,NW,305,2.0,4.0,97,0.00,,,0.00,Wunderground v.1.15,2013-01-05 09:30:00,
2013-01-05 04:35:00,63.6,62.7,30.22,NW,316,1.0,4.0,97,0.00,,,0.00,Wunderground v.1.15,2013-01-05 09:35:00,
2013-01-05 04:45:00,63.6,62.7,30.22,WNW,293,1.0,4.0,97,0.00,,,0.00,Wunderground v.1.15,2013-01-05 09:45:00,
2013-01-05 04:50:00,63.3,62.4,30.22,NNW,341,1.0,1.0,97,0.00,,,0.00,Wunderground v.1.15,2013-01-05 09:50:00,
2013-01-05 04:55:00,63.1,62.2,30.22,NNW,328,2.0,2.0,97,0.00,,,0.00,Wunderground v.1.15,2013-01-05 09:55:00,
2013-01-05 05:00:00,63.1,62.2,30.22,NNW,333,1.0,1.0,97,0.00,,,0.00,Wunderground v.1.15,2013-01-05 10:00:00,
2013-01-05 05:10:00,63.1,62.2,30.22,NNW,329,1.0,1.0,97,0.00,,,0.00,Wunderground v.1.15,2013-01-05 10:10:00,
2013-01-05 05:15:00,63.0,62.1,30.23,NE,51,0.0,5.0,97,0.00,,,0.00,Wunderground v.1.15,2013-01-05 10:15:00,
2013-01-05 05:20:00,63.0,62.1,30.23,NE,51,0.0,5.0,97,0.00,,,0.00,Wunderground v.1.15,2013-01-05 10:20:00,
2013-01-05 05:25:00,63.1,62.2,30.23,NE,51,0.0,5.0,97,0.00,,,0.00,Wunderground v.1.15,2013-01-05 10:25:00,
2013-01-05 05:35:00,63.1,62.2,30.23,NE,40,0.0,5.0,97,0.00,,,0.00,Wunderground v.1.15,2013-01-05 10:35:00,
2013-01-05 05:40:00,63.2,62.3,30.23,NE,40,0.0,5.0,97,0.00,,,0.00,Wunderground v.1.15,2013-01-05 10:40:00,
2013-01-05 05:45:00,63.3,62.1,30.23,NE,40,0.0,5.0,96,0.00,,,0.00,Wunderground v.1.15,2013-01-05 10:45:00,
2013-01-05 05:55:00,63.3,62.1,30.23,NE,40,0.0,5.0,96,0.00,,,0.00,Wunderground v.1.15,2013-01-05 10:55:00,
2013-01-05 06:00:00,63.3,62.1,30.23,NE,40,0.0,0.0,96,0.00,,,0.00,Wunderground v.1.15,2013-01-05 11:00:00,
2013-01-05 06:10:00,63.4,62.2,30.24,NE,40,0.0,0.0,96,0.00,,,0.00,Wunderground v.1.15,2013-01-05 11:10:00,
2013-01-05 06:15:00,63.5,62.3,30.23,NE,40,0.0,0.0,96,0.00,,,0.00,Wunderground v.1.15,2013-01-05 11:15:00,
2013-01-05 06:20:00,63.6,62.4,30.23,NE,40,0.0,0.0,96,0.00,,,0.00,Wunderground v.1.15,2013-01-05 11:20:00,
2013-01-05 06:30:00,63.6,62.4,30.24,NE,40,0.0,0.0,96,0.00,,,0.00,Wunderground v.1.15,2013-01-05 11:30:00,
2013-01-05 06:35:00,63.6,62.4,30.24,NE,40,0.0,0.0,96,0.00,,,0.00,Wunderground v.1.15,2013-01-05 11:35:00,
2013-01-05 06:40:00,63.4,62.2,30.24,NE,42,0.0,0.0,96,0.00,,,0.00,Wunderground v.1.15,2013-01-05 11:40:00,
2013-01-05 06:50:00,63.4,62.2,30.24,NE,42,0.0,0.0,96,0.00,,,0.00,Wunderground v.1.15,2013-01-05 11:50:00,
2013-01-05 06:55:00,63.5,62.3,30.24,NE,42,0.0,0.0,96,0.00,,,0.00,Wunderground v.1.15,2013-01-05 11:55:00,
2013-01-05 07:01:00,63.4,62.2,30.24,NE,42,0.0,0.0,96,0.00,,,0.00,Wunderground v.1.15,2013-01-05 12:01:00,
2013-01-05 07:10:00,63.5,62.3,30.25,NE,42,0.0,0.0,96,0.00,,,0.00,Wunderground v.1.15,2013-01-05 12:10:00,
2013-01-05 07:15:00,63.6,62.1,30.25,NE,42,0.0,0.0,95,0.00,,,0.00,Wunderground v.1.15,2013-01-05 12:15:00,
2013-01-05 07:20:00,63.7,62.2,30.25,NE,42,0.0,0.0,95,0.00,,,0.00,Wunderground v.1.15,2013-01-05 12:20:00,
2013-01-05 07:30:00,63.5,62.0,30.26,North,355,1.0,2.0,95,0.00,,,0.00,Wunderground v.1.15,2013-01-05 12:30:00,
2013-01-05 07:35:00,63.4,61.9,30.26,North,11,0.0,0.0,95,0.00,,,0.00,Wunderground v.1.15,2013-01-05 12:35:00,
2013-01-05 07:40:00,63.3,61.8,30.26,North,10,0.0,0.0,95,0.00,,,0.00,Wunderground v.1.15,2013-01-05 12:40:00,
2013-01-05 07:45:00,63.4,61.9,30.26,North,5,0.0,0.0,95,0.00,,,0.00,Wunderground v.1.15,2013-01-05 12:45:00,
2013-01-05 07:50:00,63.5,62.0,30.26,North,5,0.0,0.0,95,0.00,,,0.00,Wunderground v.1.15,2013-01-05 12:50:00,
2013-01-05 07:55:00,63.7,62.2,30.26,North,5,0.0,0.0,95,0.00,,,0.00,Wunderground v.1.15,2013-01-05 12:55:00,
2013-01-05 08:00:00,63.8,62.0,30.27,North,5,0.0,0.0,94,0.00,,,0.00,Wunderground v.1.15,2013-01-05 13:00:00,
2013-01-05 08:10:00,64.0,62.2,30.27,North,5,0.0,0.0,94,0.00,,,0.00,Wunderground v.1.15,2013-01-05 13:10:00,
2013-01-05 08:15:00,64.0,62.2,30.27,North,360,0.0,0.0,94,0.00,,,0.00,Wunderground v.1.15,2013-01-05 13:15:00,
2013-01-05 08:20:00,64.1,62.0,30.27,North,360,0.0,0.0,93,0.00,,,0.00,Wunderground v.1.15,2013-01-05 13:20:00,
2013-01-05 08:25:00,64.2,62.1,30.27,North,360,0.0,0.0,93,0.00,,,0.00,Wunderground v.1.15,2013-01-05 13:25:00,
2013-01-05 08:30:00,64.3,62.2,30.27,North,360,0.0,0.0,93,0.00,,,0.00,Wunderground v.1.15,2013-01-05 13:30:00,
2013-01-05 08:40:00,64.3,61.9,30.27,North,355,0.0,0.0,92,0.00,,,0.00,Wunderground v.1.15,2013-01-05 13:40:00,
2013-01-05 08:45:00,64.5,62.4,30.27,North,355,0.0,0.0,93,0.00,,,0.00,Wunderground v.1.15,2013-01-05 13:45:00,
2013-01-05 08:50:00,64.8,62.4,30.27,North,355,0.0,0.0,92,0.00,,,0.00,Wunderground v.1.15,2013-01-05 13:50:00,
2013-01-05 08:55:00,65.3,62.6,30.27,North,355,0.0,0.0,91,0.00,,,0.00,Wunderground v.1.15,2013-01-05 13:55:00,
2013-01-05 09:00:00,65.9,62.9,30.27,North,355,0.0,0.0,90,0.00,,,0.00,Wunderground v.1.15,2013-01-05 14:00:00,
2013-01-05 09:10:00,66.1,63.1,30.28,NNW,342,0.0,0.0,90,0.00,,,0.00,Wunderground v.1.15,2013-01-05 14:10:00,
2013-01-05 09:15:00,66.5,63.2,30.27,NNW,342,0.0,0.0,89,0.00,,,0.00,Wunderground v.1.15,2013-01-05 14:15:00,
2013-01-05 09:20:00,67.0,63.3,30.27,NNW,342,0.0,0.0,88,0.00,,,0.00,Wunderground v.1.15,2013-01-05 14:20:00,
2013-01-05 09:30:00,66.9,62.9,30.28,WSW,242,0.0,0.0,87,0.00,,,0.00,Wunderground v.1.15,2013-01-05 14:30:00,
2013-01-05 09:40:00,66.2,62.9,30.27,SW,227,1.0,1.0,89,0.00,,,0.00,Wunderground v.1.15,2013-01-05 14:40:00,
2013-01-05 09:45:00,66.4,63.1,30.27,SW,227,1.0,1.0,89,0.00,,,0.00,Wunderground v.1.15,2013-01-05 14:45:00,
2013-01-05 09:50:00,66.7,63.0,30.28,SW,219,0.0,0.0,88,0.00,,,0.00,Wunderground v.1.15,2013-01-05 14:50:00,
2013-01-05 09:55:00,67.0,63.3,30.28,SW,219,0.0,2.0,88,0.00,,,0.00,Wunderground v.1.15,2013-01-05 14:55:00,
2013-01-05 10:01:00,67.2,63.2,30.28,SSW,213,0.0,0.0,87,0.00,,,0.00,Wunderground v.1.15,2013-01-05 15:01:00,
2013-01-05 10:10:00,67.3,63.3,30.28,SSW,211,0.0,1.0,87,0.00,,,0.00,Wunderground v.1.15,2013-01-05 15:10:00,
2013-01-05 10:20:00,67.2,63.5,30.27,SSW,199,1.0,1.0,88,0.00,,,0.00,Wunderground v.1.15,2013-01-05 15:20:00,
2013-01-05 10:25:00,67.1,63.4,30.27,SSW,197,1.0,1.0,88,0.00,,,0.00,Wunderground v.1.15,2013-01-05 15:25:00,
2013-01-05 10:30:00,67.6,63.9,30.27,SSW,197,1.0,1.0,88,0.00,,,0.00,Wunderground v.1.15,2013-01-05 15:30:00,
2013-01-05 10:35:00,68.3,64.3,30.27,SSW,196,0.0,0.0,87,0.00,,,0.00,Wunderground v.1.15,2013-01-05 15:35:00,
2013-01-05 10:40:00,69.4,64.7,30.27,SW,234,0.0,0.0,85,0.00,,,0.00,Wunderground v.1.15,2013-01-05 15:40:00,
2013-01-05 10:50:00,70.6,65.2,30.27,SW,234,0.0,0.0,83,0.00,,,0.00,Wunderground v.1.15,2013-01-05 15:50:00,
2013-01-05 10:55:00,71.2,65.1,30.27,SW,236,0.0,1.0,81,0.00,,,0.00,Wunderground v.1.15,2013-01-05 15:55:00,
2013-01-05 11:00:00,71.7,65.6,30.26,SW,234,0.0,0.0,81,0.00,,,0.00,Wunderground v.1.15,2013-01-05 16:00:00,
2013-01-05 11:10:00,72.3,65.4,30.26,NNE,28,2.0,5.0,79,0.00,,,0.00,Wunderground v.1.15,2013-01-05 16:10:00,
2013-01-05 11:15:00,72.8,65.9,30.26,NNE,27,1.0,5.0,79,0.00,,,0.00,Wunderground v.1.15,2013-01-05 16:15:00,
2013-01-05 11:25:00,73.7,66.0,30.26,NE,34,1.0,1.0,77,0.00,,,0.00,Wunderground v.1.15,2013-01-05 16:25:00,
2013-01-05 11:30:00,73.5,65.8,30.26,NE,35,0.0,0.0,77,0.00,,,0.00,Wunderground v.1.15,2013-01-05 16:30:00,
2013-01-05 11:35:00,73.3,65.7,30.25,SSE,157,0.0,1.0,77,0.00,,,0.00,Wunderground v.1.15,2013-01-05 16:35:00,
2013-01-05 11:40:00,73.7,66.0,30.25,SSE,157,0.0,0.0,77,0.00,,,0.00,Wunderground v.1.15,2013-01-05 16:40:00,
2013-01-05 11:45:00,74.1,66.0,30.25,SSE,160,1.0,3.0,76,0.00,,,0.00,Wunderground v.1.15,2013-01-05 16:45:00,
2013-01-05 11:55:00,74.6,66.1,30.25,SSE,163,1.0,3.0,75,0.00,,,0.00,Wunderground v.1.15,2013-01-05 16:55:00,
2013-01-05 12:00:00,75.2,66.3,30.24,SSE,167,2.0,2.0,74,0.00,,,0.00,Wunderground v.1.15,2013-01-05 17:00:00,
2013-01-05 12:10:00,76.6,66.9,30.23,SSE,167,1.0,1.0,72,0.00,,,0.00,Wunderground v.1.15,2013-01-05 17:10:00,
2013-01-05 12:15:00,77.1,66.6,30.23,South,185,1.0,4.0,70,0.00,,,0.00,Wunderground v.1.15,2013-01-05 17:15:00,
2013-01-05 12:20:00,77.1,66.6,30.22,SSW,201,1.0,1.0,70,0.00,,,0.00,Wunderground v.1.15,2013-01-05 17:20:00,
2013-01-05 12:30:00,77.4,67.3,30.22,SE,132,2.0,2.0,71,0.00,,,0.00,Wunderground v.1.15,2013-01-05 17:30:00,
2013-01-05 12:35:00,78.4,67.0,30.22,SE,142,1.0,4.0,68,0.00,,,0.00,Wunderground v.1.15,2013-01-05 17:35:00,
2013-01-05 12:40:00,77.7,66.7,30.22,South,183,2.0,2.0,69,0.00,,,0.00,Wunderground v.1.15,2013-01-05 17:40:00,
2013-01-05 12:45:00,77.8,66.8,30.21,South,183,2.0,5.0,69,0.00,,,0.00,Wunderground v.1.15,2013-01-05 17:45:00,
2013-01-05 12:50:00,77.6,66.6,30.21,South,190,2.0,2.0,69,0.00,,,0.00,Wunderground v.1.15,2013-01-05 17:50:00,
2013-01-05 13:00:00,79.0,67.1,30.21,SSW,204,1.0,3.0,67,0.00,,,0.00,Wunderground v.1.15,2013-01-05 18:00:00,
2013-01-05 13:10:00,79.3,67.0,30.20,SSW,199,2.0,2.0,66,0.00,,,0.00,Wunderground v.1.15,2013-01-05 18:10:00,
2013-01-05 13:15:00,80.2,67.4,30.20,SSW,198,0.0,3.0,65,0.00,,,0.00,Wunderground v.1.15,2013-01-05 18:15:00,
2013-01-05 13:20:00,79.8,67.0,30.20,SSW,198,0.0,3.0,65,0.00,,,0.00,Wunderground v.1.15,2013-01-05 18:20:00,
2013-01-05 13:25:00,79.7,66.9,30.20,South,184,1.0,4.0,65,0.00,,,0.00,Wunderground v.1.15,2013-01-05 18:25:00,
2013-01-05 13:35:00,79.2,66.4,30.20,SSW,211,2.0,3.0,65,0.00,,,0.00,Wunderground v.1.15,2013-01-05 18:35:00,
2013-01-05 13:40:00,78.1,66.7,30.20,SSW,209,2.0,5.0,68,0.00,,,0.00,Wunderground v.1.15,2013-01-05 18:40:00,
2013-01-05 13:45:00,77.4,66.4,30.19,SSW,208,2.0,5.0,69,0.00,,,0.00,Wunderground v.1.15,2013-01-05 18:45:00,
2013-01-05 13:50:00,76.6,66.1,30.19,SSW,207,2.0,3.0,70,0.00,,,0.00,Wunderground v.1.15,2013-01-05 18:50:00,
2013-01-05 13:55:00,76.2,66.1,30.19,South,190,2.0,3.0,71,0.00,,,0.00,Wunderground v.1.15,2013-01-05 18:55:00,
2013-01-05 14:00:00,76.0,65.9,30.19,South,171,2.0,8.0,71,0.00,,,0.00,Wunderground v.1.15,2013-01-05 19:00:00,
2013-01-05 14:10:00,75.6,65.9,30.20,SSE,164,4.0,4.0,72,0.00,,,0.00,Wunderground v.1.15,2013-01-05 19:10:00,
2013-01-05 14:20:00,75.4,66.5,30.19,SSE,157,3.0,3.0,74,0.00,,,0.00,Wunderground v.1.15,2013-01-05 19:20:00,
2013-01-05 14:25:00,75.7,66.4,30.18,SSE,158,2.0,8.0,73,0.00,,,0.00,Wunderground v.1.15,2013-01-05 19:25:00,
2013-01-05 14:30:00,76.1,66.8,30.19,SSE,158,0.0,8.0,73,0.00,,,0.00,Wunderground v.1.15,2013-01-05 19:30:00,
2013-01-05 14:35:00,77.2,66.7,30.18,SSE,158,0.0,8.0,70,0.00,,,0.00,Wunderground v.1.15,2013-01-05 19:35:00,
2013-01-05 14:40:00,78.0,67.0,30.18,SSE,158,1.0,1.0,69,0.00,,,0.00,Wunderground v.1.15,2013-01-05 19:40:00,
2013-01-05 14:45:00,78.8,67.3,30.19,SSE,159,1.0,5.0,68,0.00,,,0.00,Wunderground v.1.15,2013-01-05 19:45:00,
2013-01-05 14:50:00,78.2,66.8,30.18,SSE,157,2.0,8.0,68,0.00,,,0.00,Wunderground v.1.15,2013-01-05 19:50:00,
2013-01-05 14:55:00,77.0,66.9,30.18,South,186,4.0,8.0,71,0.00,,,0.00,Wunderground v.1.15,2013-01-05 19:55:00,
2013-01-05 15:00:00,77.4,67.3,30.18,South,181,3.0,6.0,71,0.00,,,0.00,Wunderground v.1.15,2013-01-05 20:00:00,
2013-01-05 15:10:00,77.7,67.1,30.17,SE,146,3.0,4.0,70,0.00,,,0.00,Wunderground v.1.15,2013-01-05 20:10:00,
2013-01-05 15:15:00,77.4,67.3,30.17,SSE,161,3.0,4.0,71,0.00,,,0.00,Wunderground v.1.15,2013-01-05 20:15:00,
2013-01-05 15:20:00,77.6,67.4,30.17,SSE,165,3.0,4.0,71,0.00,,,0.00,Wunderground v.1.15,2013-01-05 20:20:00,
2013-01-05 15:25:00,77.7,67.5,30.18,SSE,168,2.0,4.0,71,0.00,,,0.00,Wunderground v.1.15,2013-01-05 20:25:00,
2013-01-05 15:30:00,77.4,67.3,30.18,South,171,3.0,4.0,71,0.00,,,0.00,Wunderground v.1.15,2013-01-05 20:30:00,
2013-01-05 15:35:00,77.0,67.7,30.17,South,172,3.0,4.0,73,0.00,,,0.00,Wunderground v.1.15,2013-01-05 20:35:00,
2013-01-05 15:40:00,77.3,67.6,30.17,South,173,2.0,2.0,72,0.00,,,0.00,Wunderground v.1.15,2013-01-05 20:40:00,
2013-01-05 15:50:00,76.5,67.6,30.18,South,173,1.0,1.0,74,0.00,,,0.00,Wunderground v.1.15,2013-01-05 20:50:00,
2013-01-05 15:55:00,76.7,67.8,30.18,South,173,0.0,3.0,74,0.00,,,0.00,Wunderground v.1.15,2013-01-05 20:55:00,
2013-01-05 16:00:00,76.9,67.6,30.18,South,173,0.0,0.0,73,0.00,,,0.00,Wunderground v.1.15,2013-01-05 21:00:00,
2013-01-05 16:10:00,76.8,67.5,30.18,South,173,1.0,5.0,73,0.00,,,0.00,Wunderground v.1.15,2013-01-05 21:10:00,
2013-01-05 16:15:00,76.6,67.7,30.17,South,173,1.0,5.0,74,0.00,,,0.00,Wunderground v.1.15,2013-01-05 21:15:00,
2013-01-05 16:25:00,76.5,68.0,30.18,South,175,0.0,0.0,75,0.00,,,0.00,Wunderground v.1.15,2013-01-05 21:25:00,
2013-01-05 16:30:00,76.5,67.6,30.18,South,175,0.0,0.0,74,0.00,,,0.00,Wunderground v.1.15,2013-01-05 21:30:00,
2013-01-05 16:35:00,76.7,67.8,30.18,South,175,0.0,0.0,74,0.00,,,0.00,Wunderground v.1.15,2013-01-05 21:35:00,
2013-01-05 16:40:00,76.7,67.8,30.18,South,175,0.0,0.0,74,0.00,,,0.00,Wunderground v.1.15,2013-01-05 21:40:00,
2013-01-05 16:45:00,77.3,68.0,30.18,South,175,0.0,0.0,73,0.00,,,0.00,Wunderground v.1.15,2013-01-05 21:45:00,
2013-01-05 16:55:00,77.5,67.8,30.18,South,175,0.0,0.0,72,0.00,,,0.00,Wunderground v.1.15,2013-01-05 21:55:00,
2013-01-05 17:00:00,77.2,67.9,30.18,South,175,0.0,0.0,73,0.00,,,0.00,Wunderground v.1.15,2013-01-05 22:00:00,
2013-01-05 17:10:00,75.8,66.5,30.19,South,175,0.0,0.0,73,0.00,,,0.00,Wunderground v.1.15,2013-01-05 22:10:00,
2013-01-05 17:15:00,75.5,66.6,30.19,South,175,0.0,0.0,74,0.00,,,0.00,Wunderground v.1.15,2013-01-05 22:15:00,
2013-01-05 17:20:00,75.3,66.8,30.19,South,175,0.0,0.0,75,0.00,,,0.00,Wunderground v.1.15,2013-01-05 22:20:00,
2013-01-05 17:25:00,75.2,67.1,30.19,South,175,0.0,0.0,76,0.00,,,0.00,Wunderground v.1.15,2013-01-05 22:25:00,
2013-01-05 17:30:00,75.4,67.3,30.19,South,175,0.0,0.0,76,0.00,,,0.00,Wunderground v.1.15,2013-01-05 22:30:00,
2013-01-05 17:35:00,75.3,67.2,30.20,South,175,0.0,0.0,76,0.00,,,0.00,Wunderground v.1.15,2013-01-05 22:35:00,
2013-01-05 17:40:00,75.3,67.6,30.19,South,175,0.0,0.0,77,0.00,,,0.00,Wunderground v.1.15,2013-01-05 22:40:00,
2013-01-05 17:45:00,75.3,67.6,30.19,South,175,0.0,0.0,77,0.00,,,0.00,Wunderground v.1.15,2013-01-05 22:45:00,
2013-01-05 17:55:00,74.8,67.5,30.19,South,175,0.0,0.0,78,0.00,,,0.00,Wunderground v.1.15,2013-01-05 22:55:00,
2013-01-05 18:00:00,74.6,67.3,30.19,South,175,0.0,0.0,78,0.00,,,0.00,Wunderground v.1.15,2013-01-05 23:00:00,
2013-01-05 18:10:00,74.0,67.1,30.20,South,175,0.0,0.0,79,0.00,,,0.00,Wunderground v.1.15,2013-01-05 23:10:00,
2013-01-05 18:15:00,73.7,67.1,30.20,South,175,0.0,0.0,80,0.00,,,0.00,Wunderground v.1.15,2013-01-05 23:15:00,
2013-01-05 18:20:00,73.6,67.0,30.19,South,175,0.0,0.0,80,0.00,,,0.00,Wunderground v.1.15,2013-01-05 23:20:00,
2013-01-05 18:25:00,73.5,66.9,30.20,South,175,0.0,0.0,80,0.00,,,0.00,Wunderground v.1.15,2013-01-05 23:25:00,
2013-01-05 18:35:00,73.2,67.0,30.20,South,175,0.0,0.0,81,0.00,,,0.00,Wunderground v.1.15,2013-01-05 23:35:00,
2013-01-05 18:40:00,73.0,66.8,30.20,South,175,0.0,0.0,81,0.00,,,0.00,Wunderground v.1.15,2013-01-05 23:40:00,
2013-01-05 18:45:00,72.8,66.6,30.21,South,175,0.0,0.0,81,0.00,,,0.00,Wunderground v.1.15,2013-01-05 23:45:00,
2013-01-05 18:50:00,72.6,66.8,30.20,South,175,0.0,0.0,82,0.00,,,0.00,Wunderground v.1.15,2013-01-05 23:50:00,
2013-01-05 18:55:00,72.5,66.7,30.20,South,175,0.0,0.0,82,0.00,,,0.00,Wunderground v.1.15,2013-01-05 23:55:00,
2013-01-05 19:00:00,72.4,66.6,30.20,South,175,0.0,0.0,82,0.00,,,0.00,Wunderground v.1.15,2013-01-06 00:00:00,
2013-01-05 19:10:00,72.1,66.3,30.21,South,175,0.0,0.0,82,0.00,,,0.00,Wunderground v.1.15,2013-01-06 00:10:00,
2013-01-05 19:15:00,72.0,66.2,30.21,South,175,0.0,0.0,82,0.00,,,0.00,Wunderground v.1.15,2013-01-06 00:15:00,
2013-01-05 19:20:00,71.9,66.1,30.22,South,175,0.0,0.0,82,0.00,,,0.00,Wunderground v.1.15,2013-01-06 00:20:00,
2013-01-05 19:25:00,71.8,66.4,30.22,South,175,0.0,0.0,83,0.00,,,0.00,Wunderground v.1.15,2013-01-06 00:25:00,
2013-01-05 19:30:00,71.8,66.4,30.22,South,175,0.0,0.0,83,0.00,,,0.00,Wunderground v.1.15,2013-01-06 00:30:00,
2013-01-05 19:35:00,71.7,66.3,30.22,South,175,0.0,0.0,83,0.00,,,0.00,Wunderground v.1.15,2013-01-06 00:35:00,
2013-01-05 19:45:00,71.6,66.2,30.23,South,175,0.0,0.0,83,0.00,,,0.00,Wunderground v.1.15,2013-01-06 00:45:00,
2013-01-05 19:50:00,71.6,66.2,30.23,South,175,0.0,0.0,83,0.00,,,0.00,Wunderground v.1.15,2013-01-06 00:50:00,
2013-01-05 19:55:00,71.3,66.2,30.23,South,175,0.0,0.0,84,0.00,,,0.00,Wunderground v.1.15,2013-01-06 00:55:00,
2013-01-05 20:00:00,71.0,65.9,30.23,South,175,0.0,0.0,84,0.00,,,0.00,Wunderground v.1.15,2013-01-06 01:00:00,
2013-01-05 20:10:00,70.4,65.7,30.23,South,175,0.0,0.0,85,0.00,,,0.00,Wunderground v.1.15,2013-01-06 01:10:00,
2013-01-05 20:20:00,69.9,65.9,30.23,South,175,0.0,0.0,87,0.00,,,0.00,Wunderground v.1.15,2013-01-06 01:20:00,
2013-01-05 20:25:00,69.7,65.7,30.23,South,175,0.0,0.0,87,0.00,,,0.00,Wunderground v.1.15,2013-01-06 01:25:00,
2013-01-05 20:30:00,69.5,65.8,30.23,South,175,0.0,0.0,88,0.00,,,0.00,Wunderground v.1.15,2013-01-06 01:30:00,
2013-01-05 20:35:00,69.3,65.6,30.23,South,175,0.0,0.0,88,0.00,,,0.00,Wunderground v.1.15,2013-01-06 01:35:00,
2013-01-05 20:40:00,69.1,65.7,30.24,South,175,0.0,0.0,89,0.00,,,0.00,Wunderground v.1.15,2013-01-06 01:40:00,
2013-01-05 20:50:00,68.8,65.4,30.23,South,175,0.0,0.0,89,0.00,,,0.00,Wunderground v.1.15,2013-01-06 01:50:00,
2013-01-05 20:55:00,68.6,65.5,30.24,South,175,0.0,0.0,90,0.00,,,0.00,Wunderground v.1.15,2013-01-06 01:55:00,
2013-01-05 21:00:00,68.6,65.5,30.23,South,175,0.0,0.0,90,0.00,,,0.00,Wunderground v.1.15,2013-01-06 02:00:00,
2013-01-05 21:10:00,68.5,65.4,30.23,South,175,0.0,0.0,90,0.00,,,0.00,Wunderground v.1.15,2013-01-06 02:10:00,
2013-01-05 21:15:00,68.5,65.8,30.23,South,175,0.0,0.0,91,0.00,,,0.00,Wunderground v.1.15,2013-01-06 02:15:00,
2013-01-05 21:25:00,68.0,65.3,30.24,South,175,0.0,0.0,91,0.00,,,0.00,Wunderground v.1.15,2013-01-06 02:25:00,
2013-01-05 21:30:00,67.8,65.4,30.23,South,175,0.0,0.0,92,0.00,,,0.00,Wunderground v.1.15,2013-01-06 02:30:00,
2013-01-05 21:35:00,67.7,65.3,30.23,South,175,0.0,0.0,92,0.00,,,0.00,Wunderground v.1.15,2013-01-06 02:35:00,
2013-01-05 21:40:00,67.6,65.2,30.23,South,175,0.0,0.0,92,0.00,,,0.00,Wunderground v.1.15,2013-01-06 02:40:00,
2013-01-05 21:45:00,67.4,65.0,30.24,South,175,0.0,0.0,92,0.00,,,0.00,Wunderground v.1.15,2013-01-06 02:45:00,
2013-01-05 21:50:00,67.2,65.1,30.23,South,175,0.0,0.0,93,0.00,,,0.00,Wunderground v.1.15,2013-01-06 02:50:00,
2013-01-05 22:00:00,66.8,64.7,30.24,South,175,0.0,0.0,93,0.00,,,0.00,Wunderground v.1.15,2013-01-06 03:00:00,
2013-01-05 22:10:00,66.5,64.7,30.24,South,175,0.0,0.0,94,0.00,,,0.00,Wunderground v.1.15,2013-01-06 03:10:00,
2013-01-05 22:15:00,66.6,64.8,30.24,South,175,0.0,0.0,94,0.00,,,0.00,Wunderground v.1.15,2013-01-06 03:15:00,
2013-01-05 22:25:00,66.5,64.7,30.23,South,175,0.0,0.0,94,0.00,,,0.00,Wunderground v.1.15,2013-01-06 03:25:00,
2013-01-05 22:35:00,66.4,64.6,30.23,South,175,0.0,0.0,94,0.00,,,0.00,Wunderground v.1.15,2013-01-06 03:35:00,
2013-01-05 22:40:00,66.3,64.8,30.23,South,175,0.0,0.0,95,0.00,,,0.00,Wunderground v.1.15,2013-01-06 03:40:00,
2013-01-05 22:45:00,66.2,64.7,30.23,South,175,0.0,0.0,95,0.00,,,0.00,Wunderground v.1.15,2013-01-06 03:45:00,
2013-01-05 22:50:00,66.1,64.6,30.23,South,175,0.0,0.0,95,0.00,,,0.00,Wunderground v.1.15,2013-01-06 03:50:00,
2013-01-05 22:55:00,66.1,64.6,30.23,South,175,0.0,0.0,95,0.00,,,0.00,Wunderground v.1.15,2013-01-06 03:55:00,
2013-01-05 23:00:00,65.8,64.3,30.23,South,175,0.0,0.0,95,0.00,,,0.00,Wunderground v.1.15,2013-01-06 04:00:00,
2013-01-05 23:10:00,65.5,64.0,30.22,South,175,0.0,0.0,95,0.00,,,0.00,Wunderground v.1.15,2013-01-06 04:10:00,
2013-01-05 23:20:00,65.4,63.9,30.22,South,175,0.0,0.0,95,0.00,,,0.00,Wunderground v.1.15,2013-01-06 04:20:00,
2013-01-05 23:25:00,65.4,63.9,30.22,South,175,0.0,0.0,95,0.00,,,0.00,Wunderground v.1.15,2013-01-06 04:25:00,
2013-01-05 23:30:00,65.4,63.9,30.22,South,175,0.0,0.0,95,0.00,,,0.00,Wunderground v.1.15,2013-01-06 04:30:00,
2013-01-05 23:40:00,65.1,63.9,30.21,South,175,0.0,0.0,96,0.00,,,0.00,Wunderground v.1.15,2013-01-06 04:40:00,
2013-01-05 23:45:00,64.9,63.7,30.21,South,175,0.0,0.0,96,0.00,,,0.00,Wunderground v.1.15,2013-01-06 04:45:00,
2013-01-05 23:50:00,64.7,63.5,30.21,South,175,0.0,0.0,96,0.00,,,0.00,Wunderground v.1.15,2013-01-06 04:50:00,
2013-01-05 23:55:00,64.5,63.3,30.21,South,175,0.0,0.0,96,0.00,,,0.00,Wunderground v.1.15,2013-01-06 04:55:00,